createdAt,value
2018-10-03T00:00:09.850Z,4.05
2018-10-03T00:02:38.095Z,3.70
2018-10-03T00:05:07.585Z,4.80
2018-10-03T00:07:35.887Z,4.40
2018-10-03T00:10:16.816Z,3.98
2018-10-03T00:12:57.519Z,4.30
2018-10-03T00:15:38.502Z,4.07
2018-10-03T00:18:19.004Z,4.40
2018-10-03T00:20:47.246Z,4.95
2018-10-03T00:23:27.929Z,5.42
2018-10-03T00:26:08.633Z,5.30
2018-10-03T00:28:36.905Z,4.20
2018-10-03T00:31:06.341Z,5.15
2018-10-03T00:33:34.664Z,4.90
2018-10-03T00:36:04.527Z,3.83
2018-10-03T00:38:32.754Z,3.80
2018-10-03T00:41:01.477Z,3.52
2018-10-03T00:43:42.045Z,4.23
2018-10-03T00:46:23.032Z,3.98
2018-10-03T00:48:51.366Z,4.58
2018-10-03T00:51:21.312Z,3.70
2018-10-03T00:54:01.704Z,3.50
2018-10-03T00:56:42.497Z,3.62
2018-10-03T00:59:23.278Z,4.42
2018-10-03T01:01:51.506Z,3.55
2018-10-03T01:04:33.381Z,2.80
2018-10-03T01:07:13.803Z,4.28
2018-10-03T01:09:54.797Z,2.95
2018-10-03T01:12:35.792Z,3.92
2018-10-03T01:15:04.033Z,5.00
2018-10-03T01:17:44.566Z,4.62
2018-10-03T01:20:12.802Z,3.17
2018-10-03T01:22:41.022Z,3.90
2018-10-03T01:25:09.242Z,3.90
2018-10-03T01:27:50.252Z,3.05
2018-10-03T01:30:30.916Z,3.30
2018-10-03T01:33:11.823Z,2.65
2018-10-03T01:35:40.082Z,3.40
2018-10-03T01:38:20.603Z,3.80
2018-10-03T01:40:48.809Z,3.67
2018-10-03T01:43:16.972Z,3.90
2018-10-03T01:45:57.609Z,4.45
2018-10-03T01:48:25.837Z,4.60
2018-10-03T01:51:06.566Z,3.80
2018-10-03T01:53:47.429Z,3.90
2018-10-03T01:56:15.644Z,3.20
2018-10-03T01:58:56.515Z,3.20
2018-10-03T02:01:37.296Z,3.87
2018-10-03T02:04:05.521Z,4.75
2018-10-03T02:06:45.898Z,3.67
2018-10-03T02:09:26.706Z,3.58
2018-10-03T02:12:07.463Z,4.53
2018-10-03T02:14:35.849Z,3.15
2018-10-03T02:17:04.086Z,3.40
2018-10-03T02:19:44.979Z,3.20
2018-10-03T02:22:14.893Z,2.98
2018-10-03T02:24:43.074Z,3.10
2018-10-03T02:27:11.364Z,3.55
2018-10-03T02:29:39.559Z,4.08
2018-10-03T02:32:20.728Z,3.85
2018-10-03T02:34:49.019Z,3.77
2018-10-03T02:37:30.121Z,3.92
2018-10-03T02:40:10.893Z,3.47
2018-10-03T02:42:51.746Z,4.00
2018-10-03T02:45:32.570Z,4.03
2018-10-03T02:48:13.327Z,2.87
2018-10-03T02:50:43.280Z,4.05
2018-10-03T02:53:24.368Z,4.30
2018-10-03T02:56:05.182Z,3.60
2018-10-03T02:58:46.251Z,4.08
2018-10-03T03:01:27.040Z,3.75
2018-10-03T03:04:07.915Z,3.40
2018-10-03T03:06:48.757Z,4.75
2018-10-03T03:09:16.985Z,3.52
2018-10-03T03:11:57.510Z,3.35
2018-10-03T03:14:38.241Z,3.47
2018-10-03T03:17:19.113Z,2.80
2018-10-03T03:19:59.649Z,3.62
2018-10-03T03:22:40.400Z,4.12
2018-10-03T03:25:21.169Z,3.55
2018-10-03T03:27:49.381Z,4.08
2018-10-03T03:30:29.815Z,3.25
2018-10-03T03:33:10.581Z,3.98
2018-10-03T03:35:51.441Z,3.58
2018-10-03T03:38:32.409Z,2.72
2018-10-03T03:41:13.179Z,3.25
2018-10-03T03:43:41.350Z,3.83
2018-10-03T03:46:21.656Z,4.50
2018-10-03T03:48:55.363Z,2.98
2018-10-03T03:51:23.696Z,3.80
2018-10-03T03:53:51.997Z,3.40
2018-10-03T03:56:32.766Z,3.10
2018-10-03T03:59:01.006Z,3.60
2018-10-03T04:01:30.019Z,3.37
2018-10-03T04:03:58.264Z,3.60
2018-10-03T04:06:26.469Z,4.03
2018-10-03T04:08:54.785Z,3.22
2018-10-03T04:11:23.668Z,3.20
2018-10-03T04:13:53.809Z,2.80
2018-10-03T04:16:22.096Z,3.17
2018-10-03T04:18:50.312Z,2.42
2018-10-03T04:21:22.927Z,4.00
2018-10-03T04:24:04.078Z,2.75
2018-10-03T04:26:32.416Z,3.25
2018-10-03T04:29:00.630Z,3.72
2018-10-03T04:31:41.337Z,3.25
2018-10-03T04:34:09.528Z,4.25
2018-10-03T04:36:38.627Z,4.45
2018-10-03T04:39:18.941Z,3.90
2018-10-03T04:41:47.200Z,3.72
2018-10-03T04:44:17.142Z,3.20
2018-10-03T04:46:45.354Z,2.33
2018-10-03T04:49:16.594Z,3.67
2018-10-03T04:51:56.823Z,3.65
2018-10-03T04:54:25.075Z,4.00
2018-10-03T04:56:53.321Z,2.90
2018-10-03T04:59:34.111Z,4.75
2018-10-03T05:02:14.424Z,3.90
2018-10-03T05:04:55.045Z,3.10
2018-10-03T05:07:23.258Z,3.55
2018-10-03T05:09:51.527Z,2.20
2018-10-03T05:12:32.050Z,3.22
2018-10-03T05:15:00.297Z,2.90
2018-10-03T05:17:41.141Z,4.10
2018-10-03T05:20:21.595Z,2.17
2018-10-03T05:23:02.543Z,2.40
2018-10-03T05:25:34.096Z,2.10
2018-10-03T06:23:06.216Z,3.62
2018-10-03T06:25:34.430Z,3.65
2018-10-03T06:28:03.203Z,2.85
2018-10-03T06:30:31.500Z,3.27
2018-10-03T06:32:59.700Z,2.52
2018-10-03T06:35:36.035Z,3.87
2018-10-03T06:38:10.301Z,4.30
2018-10-03T06:40:39.345Z,3.00
2018-10-03T06:43:07.541Z,3.30
2018-10-03T06:45:36.791Z,3.00
2018-10-03T06:48:05.045Z,4.03
2018-10-03T06:50:34.907Z,3.17
2018-10-03T06:53:15.211Z,3.62
2018-10-03T06:55:56.173Z,3.58
2018-10-03T06:58:37.230Z,4.20
2018-10-03T07:01:05.501Z,5.10
2018-10-03T07:03:45.980Z,3.17
2018-10-03T07:06:26.516Z,3.70
2018-10-03T07:08:55.824Z,4.00
2018-10-03T07:11:24.312Z,3.22
2018-10-03T07:13:54.269Z,4.58
2018-10-03T07:16:23.982Z,3.33
2018-10-03T07:18:55.378Z,3.47
2018-10-03T07:21:23.769Z,3.83
2018-10-03T07:23:52.067Z,3.15
2018-10-03T07:26:28.073Z,3.22
2018-10-03T07:28:56.311Z,2.72
2018-10-03T07:31:36.701Z,2.90
2018-10-03T07:34:17.472Z,2.92
2018-10-03T07:36:58.277Z,2.87
2018-10-03T07:39:26.565Z,2.98
2018-10-03T07:42:07.118Z,3.80
2018-10-03T07:44:48.139Z,3.20
2018-10-03T07:47:16.961Z,3.73
2018-10-03T07:49:45.243Z,3.62
2018-10-03T07:52:15.346Z,3.52
2018-10-03T07:54:45.305Z,3.10
2018-10-03T07:57:13.518Z,2.90
2018-10-03T07:59:54.616Z,3.47
2018-10-03T08:02:22.898Z,2.90
2018-10-03T08:05:03.320Z,2.50
2018-10-03T08:07:51.304Z,3.17
2018-10-03T08:10:36.499Z,3.00
2018-10-03T08:13:17.327Z,2.55
2018-10-03T08:15:58.073Z,3.40
2018-10-03T08:21:20.231Z,3.45
2018-10-03T08:27:19.410Z,3.05
2018-10-03T08:30:02.348Z,3.40
2018-10-03T08:34:18.915Z,3.20
2018-10-03T08:37:03.136Z,2.40
2018-10-03T08:48:55.483Z,3.10
2018-10-03T09:07:28.901Z,2.83
2018-10-03T09:09:57.602Z,2.17
2018-10-03T09:12:26.455Z,2.10
2018-10-03T09:14:54.765Z,2.27
2018-10-03T09:17:23.006Z,2.52
2018-10-03T09:19:54.055Z,1.70
2018-10-03T09:22:23.363Z,1.77
2018-10-03T09:24:51.813Z,3.15
2018-10-03T09:27:26.096Z,2.25
2018-10-03T09:29:56.260Z,2.55
2018-10-03T09:32:29.231Z,3.02
2018-10-03T09:34:58.135Z,2.30
2018-10-03T09:37:26.372Z,2.35
2018-10-03T09:39:54.652Z,1.80
2018-10-03T09:42:24.027Z,1.80
2018-10-03T09:45:04.806Z,2.37
2018-10-03T09:47:46.487Z,2.20
2018-10-03T09:50:14.805Z,2.75
2018-10-03T09:52:43.077Z,2.08
2018-10-03T09:55:23.245Z,2.20
2018-10-03T09:57:51.466Z,2.10
2018-10-03T10:00:25.274Z,2.67
2018-10-03T10:02:53.440Z,2.10
2018-10-03T10:05:33.640Z,2.40
2018-10-03T10:08:14.581Z,2.20
2018-10-03T10:10:55.515Z,2.65
2018-10-03T10:13:24.286Z,1.95
2018-10-03T10:16:05.128Z,2.22
2018-10-03T10:18:33.389Z,1.77
2018-10-03T10:21:14.333Z,1.75
2018-10-03T10:23:42.557Z,2.60
2018-10-03T10:26:13.871Z,1.70
2018-10-03T10:28:42.860Z,2.10
2018-10-03T10:31:25.586Z,2.08
2018-10-03T10:33:53.945Z,2.20
2018-10-03T10:36:23.241Z,2.00
2018-10-03T10:39:05.310Z,2.20
2018-10-03T10:41:33.796Z,2.17
2018-10-03T10:44:14.715Z,2.10
2018-10-03T10:46:44.739Z,1.30
2018-10-03T10:49:12.934Z,2.45
2018-10-03T10:51:41.322Z,2.05
